sensor_id;sensor_type;location;lat;lon;timestamp;temperature;humidity
2200;DHT22;1106;48.762;9.168;2022-09-06T00:00:08;19.70;81.60
2200;DHT22;1106;48.762;9.168;2022-09-06T00:02:35;19.70;81.70
2200;DHT22;1106;48.762;9.168;2022-09-06T00:05:04;19.60;81.90
2200;DHT22;1106;48.762;9.168;2022-09-06T00:07:31;19.60;81.90
2200;DHT22;1106;48.762;9.168;2022-09-06T00:09:59;19.50;82.10
2200;DHT22;1106;48.762;9.168;2022-09-06T00:12:26;19.50;82.20
2200;DHT22;1106;48.762;9.168;2022-09-06T00:14:53;19.50;82.30
2200;DHT22;1106;48.762;9.168;2022-09-06T00:17:20;19.40;82.40
2200;DHT22;1106;48.762;9.168;2022-09-06T00:19:47;19.40;82.40
2200;DHT22;1106;48.762;9.168;2022-09-06T00:22:14;19.40;82.40
2200;DHT22;1106;48.762;9.168;2022-09-06T00:24:41;19.40;82.50
2200;DHT22;1106;48.762;9.168;2022-09-06T00:27:10;19.40;82.40
2200;DHT22;1106;48.762;9.168;2022-09-06T00:29:36;19.40;82.40
2200;DHT22;1106;48.762;9.168;2022-09-06T00:32:03;19.40;82.40
2200;DHT22;1106;48.762;9.168;2022-09-06T00:34:30;19.40;82.50
2200;DHT22;1106;48.762;9.168;2022-09-06T00:36:57;19.30;82.60
2200;DHT22;1106;48.762;9.168;2022-09-06T00:39:24;19.30;82.60
2200;DHT22;1106;48.762;9.168;2022-09-06T00:41:51;19.30;82.60
2200;DHT22;1106;48.762;9.168;2022-09-06T00:44:20;19.30;82.70
2200;DHT22;1106;48.762;9.168;2022-09-06T00:46:48;19.30;82.80
2200;DHT22;1106;48.762;9.168;2022-09-06T00:49:21;19.20;83.00
2200;DHT22;1106;48.762;9.168;2022-09-06T00:51:51;19.20;83.10
2200;DHT22;1106;48.762;9.168;2022-09-06T00:54:19;19.20;83.20
2200;DHT22;1106;48.762;9.168;2022-09-06T00:56:46;19.20;83.10
2200;DHT22;1106;48.762;9.168;2022-09-06T00:59:14;19.20;83.00
2200;DHT22;1106;48.762;9.168;2022-09-06T01:01:42;19.20;83.00
2200;DHT22;1106;48.762;9.168;2022-09-06T01:04:09;19.20;82.90
2200;DHT22;1106;48.762;9.168;2022-09-06T01:06:45;19.20;83.10
2200;DHT22;1106;48.762;9.168;2022-09-06T01:09:25;19.20;83.10
2200;DHT22;1106;48.762;9.168;2022-09-06T01:12:03;19.20;83.00
2200;DHT22;1106;48.762;9.168;2022-09-06T01:14:39;19.10;83.30
2200;DHT22;1106;48.762;9.168;2022-09-06T01:17:18;19.10;83.40
2200;DHT22;1106;48.762;9.168;2022-09-06T01:20:22;19.10;83.30
2200;DHT22;1106;48.762;9.168;2022-09-06T01:23:24;19.10;83.20
2200;DHT22;1106;48.762;9.168;2022-09-06T01:26:04;19.10;83.30
2200;DHT22;1106;48.762;9.168;2022-09-06T01:28:39;19.10;83.40
2200;DHT22;1106;48.762;9.168;2022-09-06T01:31:19;19.10;83.40
2200;DHT22;1106;48.762;9.168;2022-09-06T01:33:52;19.10;83.40
2200;DHT22;1106;48.762;9.168;2022-09-06T01:36:24;19.00;83.50
2200;DHT22;1106;48.762;9.168;2022-09-06T01:38:52;19.00;83.50
2200;DHT22;1106;48.762;9.168;2022-09-06T01:41:19;19.00;83.60
2200;DHT22;1106;48.762;9.168;2022-09-06T01:43:49;19.00;83.60
2200;DHT22;1106;48.762;9.168;2022-09-06T01:46:22;19.00;83.50
2200;DHT22;1106;48.762;9.168;2022-09-06T01:49:06;19.00;83.40
2200;DHT22;1106;48.762;9.168;2022-09-06T01:51:47;19.00;83.40
2200;DHT22;1106;48.762;9.168;2022-09-06T01:54:27;19.00;83.30
2200;DHT22;1106;48.762;9.168;2022-09-06T01:57:10;19.00;83.00
2200;DHT22;1106;48.762;9.168;2022-09-06T01:59:56;19.00;83.10
2200;DHT22;1106;48.762;9.168;2022-09-06T02:02:34;19.00;83.20
2200;DHT22;1106;48.762;9.168;2022-09-06T02:05:06;19.00;83.30
2200;DHT22;1106;48.762;9.168;2022-09-06T02:07:36;18.90;83.40
2200;DHT22;1106;48.762;9.168;2022-09-06T02:10:07;18.90;83.30
2200;DHT22;1106;48.762;9.168;2022-09-06T02:12:37;19.00;83.20
2200;DHT22;1106;48.762;9.168;2022-09-06T02:15:09;19.00;82.90
2200;DHT22;1106;48.762;9.168;2022-09-06T02:17:42;18.90;83.00
2200;DHT22;1106;48.762;9.168;2022-09-06T02:20:15;18.90;82.90
2200;DHT22;1106;48.762;9.168;2022-09-06T02:22:45;18.90;83.20
2200;DHT22;1106;48.762;9.168;2022-09-06T02:25:17;18.90;82.50
2200;DHT22;1106;48.762;9.168;2022-09-06T02:27:47;19.00;81.60
2200;DHT22;1106;48.762;9.168;2022-09-06T02:30:15;19.30;80.00
2200;DHT22;1106;48.762;9.168;2022-09-06T02:32:47;19.50;79.20
2200;DHT22;1106;48.762;9.168;2022-09-06T02:35:16;19.60;79.00
2200;DHT22;1106;48.762;9.168;2022-09-06T02:37:43;19.80;78.70
2200;DHT22;1106;48.762;9.168;2022-09-06T02:40:11;19.90;78.10
2200;DHT22;1106;48.762;9.168;2022-09-06T02:42:39;20.00;77.90
2200;DHT22;1106;48.762;9.168;2022-09-06T02:45:07;20.10;77.60
2200;DHT22;1106;48.762;9.168;2022-09-06T02:47:35;20.20;77.30
2200;DHT22;1106;48.762;9.168;2022-09-06T02:50:02;20.40;76.80
2200;DHT22;1106;48.762;9.168;2022-09-06T02:52:29;20.50;76.60
2200;DHT22;1106;48.762;9.168;2022-09-06T02:54:56;20.50;76.90
2200;DHT22;1106;48.762;9.168;2022-09-06T02:57:23;20.60;76.70
2200;DHT22;1106;48.762;9.168;2022-09-06T02:59:50;20.70;77.20
2200;DHT22;1106;48.762;9.168;2022-09-06T03:02:18;20.80;77.60
2200;DHT22;1106;48.762;9.168;2022-09-06T03:04:46;20.70;79.40
2200;DHT22;1106;48.762;9.168;2022-09-06T03:07:13;20.60;80.00
2200;DHT22;1106;48.762;9.168;2022-09-06T03:09:40;20.50;80.80
2200;DHT22;1106;48.762;9.168;2022-09-06T03:12:07;20.50;82.30
2200;DHT22;1106;48.762;9.168;2022-09-06T03:14:34;20.40;83.30
2200;DHT22;1106;48.762;9.168;2022-09-06T03:17:01;20.40;83.80
2200;DHT22;1106;48.762;9.168;2022-09-06T03:19:28;20.30;84.20
2200;DHT22;1106;48.762;9.168;2022-09-06T03:21:57;20.20;84.70
2200;DHT22;1106;48.762;9.168;2022-09-06T03:24:23;20.30;85.40
2200;DHT22;1106;48.762;9.168;2022-09-06T03:26:51;20.20;85.50
2200;DHT22;1106;48.762;9.168;2022-09-06T03:29:17;20.10;85.60
2200;DHT22;1106;48.762;9.168;2022-09-06T03:31:44;20.10;86.70
2200;DHT22;1106;48.762;9.168;2022-09-06T03:34:11;20.00;87.70
2200;DHT22;1106;48.762;9.168;2022-09-06T03:36:38;19.90;88.20
2200;DHT22;1106;48.762;9.168;2022-09-06T03:39:07;19.70;88.70
2200;DHT22;1106;48.762;9.168;2022-09-06T03:41:34;19.60;89.10
2200;DHT22;1106;48.762;9.168;2022-09-06T03:44:02;19.60;89.40
2200;DHT22;1106;48.762;9.168;2022-09-06T03:46:29;19.50;89.40
2200;DHT22;1106;48.762;9.168;2022-09-06T03:48:56;19.40;89.90
2200;DHT22;1106;48.762;9.168;2022-09-06T03:51:24;19.50;90.00
2200;DHT22;1106;48.762;9.168;2022-09-06T03:53:51;19.40;89.80
2200;DHT22;1106;48.762;9.168;2022-09-06T03:56:20;19.40;89.90
2200;DHT22;1106;48.762;9.168;2022-09-06T03:58:47;19.30;90.70
2200;DHT22;1106;48.762;9.168;2022-09-06T04:01:14;19.30;91.00
2200;DHT22;1106;48.762;9.168;2022-09-06T04:03:41;19.10;91.60
2200;DHT22;1106;48.762;9.168;2022-09-06T04:06:08;19.10;92.10
2200;DHT22;1106;48.762;9.168;2022-09-06T04:08:35;19.00;92.20
2200;DHT22;1106;48.762;9.168;2022-09-06T04:11:03;19.00;92.20
2200;DHT22;1106;48.762;9.168;2022-09-06T04:13:32;18.90;92.20
2200;DHT22;1106;48.762;9.168;2022-09-06T04:16:00;18.90;92.40
2200;DHT22;1106;48.762;9.168;2022-09-06T04:18:27;19.00;92.10
2200;DHT22;1106;48.762;9.168;2022-09-06T04:20:55;18.90;92.20
2200;DHT22;1106;48.762;9.168;2022-09-06T04:23:23;18.90;92.20
2200;DHT22;1106;48.762;9.168;2022-09-06T04:25:52;18.90;92.30
2200;DHT22;1106;48.762;9.168;2022-09-06T04:28:20;18.90;92.20
2200;DHT22;1106;48.762;9.168;2022-09-06T04:30:53;18.80;92.30
2200;DHT22;1106;48.762;9.168;2022-09-06T04:33:20;18.90;92.30
2200;DHT22;1106;48.762;9.168;2022-09-06T04:35:50;19.00;92.10
2200;DHT22;1106;48.762;9.168;2022-09-06T04:38:17;18.90;91.90
2200;DHT22;1106;48.762;9.168;2022-09-06T04:40:44;18.90;91.80
2200;DHT22;1106;48.762;9.168;2022-09-06T04:43:11;18.90;91.80
2200;DHT22;1106;48.762;9.168;2022-09-06T04:45:38;18.90;91.70
2200;DHT22;1106;48.762;9.168;2022-09-06T04:48:07;18.90;91.70
2200;DHT22;1106;48.762;9.168;2022-09-06T04:50:34;18.90;91.80
2200;DHT22;1106;48.762;9.168;2022-09-06T04:53:00;18.90;92.00
2200;DHT22;1106;48.762;9.168;2022-09-06T04:55:27;18.90;92.10
2200;DHT22;1106;48.762;9.168;2022-09-06T04:57:56;18.90;92.00
2200;DHT22;1106;48.762;9.168;2022-09-06T05:00:24;19.00;91.80
2200;DHT22;1106;48.762;9.168;2022-09-06T05:02:51;19.00;91.70
2200;DHT22;1106;48.762;9.168;2022-09-06T05:05:20;19.00;91.80
2200;DHT22;1106;48.762;9.168;2022-09-06T05:07:50;19.00;91.80
2200;DHT22;1106;48.762;9.168;2022-09-06T05:10:17;19.00;91.80
2200;DHT22;1106;48.762;9.168;2022-09-06T05:12:46;19.00;91.80
2200;DHT22;1106;48.762;9.168;2022-09-06T05:15:14;19.00;92.00
2200;DHT22;1106;48.762;9.168;2022-09-06T05:17:41;19.00;91.90
2200;DHT22;1106;48.762;9.168;2022-09-06T05:20:09;19.00;92.00
2200;DHT22;1106;48.762;9.168;2022-09-06T05:22:38;19.00;92.40
2200;DHT22;1106;48.762;9.168;2022-09-06T05:25:06;19.00;92.30
2200;DHT22;1106;48.762;9.168;2022-09-06T05:27:33;19.00;92.00
2200;DHT22;1106;48.762;9.168;2022-09-06T05:30:00;19.00;91.90
2200;DHT22;1106;48.762;9.168;2022-09-06T05:32:27;19.10;91.90
2200;DHT22;1106;48.762;9.168;2022-09-06T05:34:54;19.10;91.90
2200;DHT22;1106;48.762;9.168;2022-09-06T05:37:21;19.20;91.70
2200;DHT22;1106;48.762;9.168;2022-09-06T05:39:50;19.20;91.70
2200;DHT22;1106;48.762;9.168;2022-09-06T05:42:17;19.30;91.50
2200;DHT22;1106;48.762;9.168;2022-09-06T05:44:44;19.30;91.10
2200;DHT22;1106;48.762;9.168;2022-09-06T05:47:11;19.30;91.10
2200;DHT22;1106;48.762;9.168;2022-09-06T05:49:38;19.30;91.30
2200;DHT22;1106;48.762;9.168;2022-09-06T05:52:05;19.30;90.80
2200;DHT22;1106;48.762;9.168;2022-09-06T05:54:32;19.40;90.50
2200;DHT22;1106;48.762;9.168;2022-09-06T05:57:00;19.60;89.90
2200;DHT22;1106;48.762;9.168;2022-09-06T05:59:27;19.70;89.30
2200;DHT22;1106;48.762;9.168;2022-09-06T06:01:54;19.70;88.90
2200;DHT22;1106;48.762;9.168;2022-09-06T06:04:21;19.70;89.00
2200;DHT22;1106;48.762;9.168;2022-09-06T06:06:48;19.80;89.10
2200;DHT22;1106;48.762;9.168;2022-09-06T06:09:15;19.80;89.10
2200;DHT22;1106;48.762;9.168;2022-09-06T06:11:43;19.90;88.70
2200;DHT22;1106;48.762;9.168;2022-09-06T06:14:11;19.90;88.30
2200;DHT22;1106;48.762;9.168;2022-09-06T06:16:38;19.90;88.30
2200;DHT22;1106;48.762;9.168;2022-09-06T06:19:05;20.00;88.20
2200;DHT22;1106;48.762;9.168;2022-09-06T06:21:33;20.00;88.20
2200;DHT22;1106;48.762;9.168;2022-09-06T06:24:04;20.00;88.00
2200;DHT22;1106;48.762;9.168;2022-09-06T06:26:33;20.10;87.80
2200;DHT22;1106;48.762;9.168;2022-09-06T06:29:01;20.20;87.40
2200;DHT22;1106;48.762;9.168;2022-09-06T06:31:31;20.30;86.80
2200;DHT22;1106;48.762;9.168;2022-09-06T06:33:58;20.40;86.40
2200;DHT22;1106;48.762;9.168;2022-09-06T06:36:27;20.50;85.90
2200;DHT22;1106;48.762;9.168;2022-09-06T06:38:56;20.50;85.90
2200;DHT22;1106;48.762;9.168;2022-09-06T06:41:25;20.70;85.20
2200;DHT22;1106;48.762;9.168;2022-09-06T06:43:53;20.90;84.40
2200;DHT22;1106;48.762;9.168;2022-09-06T06:46:22;20.90;84.30
2200;DHT22;1106;48.762;9.168;2022-09-06T06:48:51;21.10;83.70
2200;DHT22;1106;48.762;9.168;2022-09-06T06:51:20;21.20;83.40
2200;DHT22;1106;48.762;9.168;2022-09-06T06:53:47;21.30;82.90
2200;DHT22;1106;48.762;9.168;2022-09-06T06:56:15;21.50;82.20
2200;DHT22;1106;48.762;9.168;2022-09-06T06:58:43;21.70;81.30
2200;DHT22;1106;48.762;9.168;2022-09-06T07:01:10;21.80;80.60
2200;DHT22;1106;48.762;9.168;2022-09-06T07:03:38;22.00;80.10
2200;DHT22;1106;48.762;9.168;2022-09-06T07:06:07;22.10;79.70
2200;DHT22;1106;48.762;9.168;2022-09-06T07:08:35;22.20;79.50
2200;DHT22;1106;48.762;9.168;2022-09-06T07:11:03;22.30;78.30
2200;DHT22;1106;48.762;9.168;2022-09-06T07:13:31;22.50;77.80
2200;DHT22;1106;48.762;9.168;2022-09-06T07:16:09;22.60;77.60
2200;DHT22;1106;48.762;9.168;2022-09-06T07:18:37;22.80;76.30
2200;DHT22;1106;48.762;9.168;2022-09-06T07:21:09;22.80;76.10
2200;DHT22;1106;48.762;9.168;2022-09-06T07:23:37;22.90;76.00
2200;DHT22;1106;48.762;9.168;2022-09-06T07:26:04;22.90;75.90
2200;DHT22;1106;48.762;9.168;2022-09-06T07:28:32;22.90;75.90
2200;DHT22;1106;48.762;9.168;2022-09-06T07:30:59;23.00;75.60
2200;DHT22;1106;48.762;9.168;2022-09-06T07:33:26;23.00;76.00
2200;DHT22;1106;48.762;9.168;2022-09-06T07:35:58;22.90;76.10
2200;DHT22;1106;48.762;9.168;2022-09-06T07:38:27;23.00;75.90
2200;DHT22;1106;48.762;9.168;2022-09-06T07:40:55;22.80;76.40
2200;DHT22;1106;48.762;9.168;2022-09-06T07:43:23;22.90;75.80
2200;DHT22;1106;48.762;9.168;2022-09-06T07:46:01;22.90;75.20
2200;DHT22;1106;48.762;9.168;2022-09-06T07:48:29;22.90;75.50
2200;DHT22;1106;48.762;9.168;2022-09-06T07:51:07;22.90;75.60
2200;DHT22;1106;48.762;9.168;2022-09-06T07:53:37;23.00;75.40
2200;DHT22;1106;48.762;9.168;2022-09-06T07:56:07;23.20;74.80
2200;DHT22;1106;48.762;9.168;2022-09-06T07:58:34;23.30;73.70
2200;DHT22;1106;48.762;9.168;2022-09-06T08:01:32;23.40;73.40
2200;DHT22;1106;48.762;9.168;2022-09-06T08:04:02;23.40;72.90
2200;DHT22;1106;48.762;9.168;2022-09-06T08:06:31;23.50;72.90
2200;DHT22;1106;48.762;9.168;2022-09-06T08:09:00;23.60;72.70
2200;DHT22;1106;48.762;9.168;2022-09-06T08:11:28;23.80;71.80
2200;DHT22;1106;48.762;9.168;2022-09-06T08:13:57;23.90;71.70
2200;DHT22;1106;48.762;9.168;2022-09-06T08:16:26;23.90;71.20
2200;DHT22;1106;48.762;9.168;2022-09-06T08:18:54;24.00;71.00
2200;DHT22;1106;48.762;9.168;2022-09-06T08:21:26;24.00;70.20
2200;DHT22;1106;48.762;9.168;2022-09-06T08:23:55;24.10;70.20
2200;DHT22;1106;48.762;9.168;2022-09-06T08:26:25;24.20;69.80
2200;DHT22;1106;48.762;9.168;2022-09-06T08:28:53;24.30;69.70
2200;DHT22;1106;48.762;9.168;2022-09-06T08:31:22;24.40;69.40
2200;DHT22;1106;48.762;9.168;2022-09-06T08:33:51;24.50;69.10
2200;DHT22;1106;48.762;9.168;2022-09-06T08:36:19;24.60;69.10
2200;DHT22;1106;48.762;9.168;2022-09-06T08:38:46;24.80;68.70
2200;DHT22;1106;48.762;9.168;2022-09-06T08:41:22;24.90;68.60
2200;DHT22;1106;48.762;9.168;2022-09-06T08:43:53;25.00;68.60
2200;DHT22;1106;48.762;9.168;2022-09-06T08:46:28;25.20;68.10
2200;DHT22;1106;48.762;9.168;2022-09-06T08:48:57;25.30;67.90
2200;DHT22;1106;48.762;9.168;2022-09-06T08:51:45;25.40;67.50
2200;DHT22;1106;48.762;9.168;2022-09-06T08:54:20;25.50;66.70
2200;DHT22;1106;48.762;9.168;2022-09-06T08:57:01;25.60;66.50
2200;DHT22;1106;48.762;9.168;2022-09-06T08:59:35;25.80;65.90
2200;DHT22;1106;48.762;9.168;2022-09-06T09:02:10;25.90;65.20
2200;DHT22;1106;48.762;9.168;2022-09-06T09:04:40;26.00;64.80
2200;DHT22;1106;48.762;9.168;2022-09-06T09:07:28;26.20;64.50
2200;DHT22;1106;48.762;9.168;2022-09-06T09:09:58;26.40;64.10
2200;DHT22;1106;48.762;9.168;2022-09-06T09:12:30;26.50;63.60
2200;DHT22;1106;48.762;9.168;2022-09-06T09:15:05;26.70;63.20
2200;DHT22;1106;48.762;9.168;2022-09-06T09:17:34;26.90;63.20
2200;DHT22;1106;48.762;9.168;2022-09-06T09:20:02;27.10;62.40
2200;DHT22;1106;48.762;9.168;2022-09-06T09:22:29;27.30;62.40
2200;DHT22;1106;48.762;9.168;2022-09-06T09:24:57;27.60;62.00
2200;DHT22;1106;48.762;9.168;2022-09-06T09:27:26;27.90;61.30
2200;DHT22;1106;48.762;9.168;2022-09-06T09:29:57;28.10;60.80
2200;DHT22;1106;48.762;9.168;2022-09-06T09:32:31;28.20;60.20
2200;DHT22;1106;48.762;9.168;2022-09-06T09:35:24;28.30;60.40
2200;DHT22;1106;48.762;9.168;2022-09-06T09:38:00;28.40;60.50
2200;DHT22;1106;48.762;9.168;2022-09-06T09:40:29;28.40;60.70
2200;DHT22;1106;48.762;9.168;2022-09-06T09:43:10;28.30;60.40
2200;DHT22;1106;48.762;9.168;2022-09-06T09:45:37;28.40;60.20
2200;DHT22;1106;48.762;9.168;2022-09-06T09:48:18;28.50;59.90
2200;DHT22;1106;48.762;9.168;2022-09-06T09:50:46;28.60;59.60
2200;DHT22;1106;48.762;9.168;2022-09-06T09:53:17;28.70;59.70
2200;DHT22;1106;48.762;9.168;2022-09-06T09:55:44;28.60;59.90
2200;DHT22;1106;48.762;9.168;2022-09-06T09:58:21;28.80;59.60
2200;DHT22;1106;48.762;9.168;2022-09-06T10:01:08;28.90;59.00
2200;DHT22;1106;48.762;9.168;2022-09-06T10:03:37;29.00;58.90
2200;DHT22;1106;48.762;9.168;2022-09-06T10:06:05;29.10;58.20
2200;DHT22;1106;48.762;9.168;2022-09-06T10:08:38;29.20;58.30
2200;DHT22;1106;48.762;9.168;2022-09-06T10:11:11;29.30;58.50
2200;DHT22;1106;48.762;9.168;2022-09-06T10:13:39;29.40;57.80
2200;DHT22;1106;48.762;9.168;2022-09-06T10:16:07;29.60;57.80
2200;DHT22;1106;48.762;9.168;2022-09-06T10:18:38;29.80;56.90
2200;DHT22;1106;48.762;9.168;2022-09-06T10:21:07;29.80;54.50
2200;DHT22;1106;48.762;9.168;2022-09-06T10:23:45;29.30;54.30
2200;DHT22;1106;48.762;9.168;2022-09-06T10:26:19;29.10;55.50
2200;DHT22;1106;48.762;9.168;2022-09-06T10:28:53;29.20;55.70
2200;DHT22;1106;48.762;9.168;2022-09-06T10:31:51;29.50;55.60
2200;DHT22;1106;48.762;9.168;2022-09-06T10:38:01;30.00;53.90
2200;DHT22;1106;48.762;9.168;2022-09-06T10:40:33;29.70;55.20
2200;DHT22;1106;48.762;9.168;2022-09-06T10:43:05;29.90;54.10
2200;DHT22;1106;48.762;9.168;2022-09-06T10:45:41;30.00;54.70
2200;DHT22;1106;48.762;9.168;2022-09-06T10:48:14;30.10;54.60
2200;DHT22;1106;48.762;9.168;2022-09-06T10:50:48;30.20;54.70
2200;DHT22;1106;48.762;9.168;2022-09-06T10:53:28;30.40;54.40
2200;DHT22;1106;48.762;9.168;2022-09-06T10:56:02;30.60;54.00
2200;DHT22;1106;48.762;9.168;2022-09-06T10:58:33;30.80;53.40
2200;DHT22;1106;48.762;9.168;2022-09-06T11:01:05;31.00;53.30
2200;DHT22;1106;48.762;9.168;2022-09-06T11:03:36;31.10;53.30
2200;DHT22;1106;48.762;9.168;2022-09-06T11:06:07;31.20;53.00
2200;DHT22;1106;48.762;9.168;2022-09-06T11:08:41;31.30;52.90
2200;DHT22;1106;48.762;9.168;2022-09-06T11:11:15;31.40;53.00
2200;DHT22;1106;48.762;9.168;2022-09-06T11:13:42;31.40;53.10
2200;DHT22;1106;48.762;9.168;2022-09-06T11:16:14;31.30;53.00
2200;DHT22;1106;48.762;9.168;2022-09-06T11:18:46;31.40;53.30
2200;DHT22;1106;48.762;9.168;2022-09-06T11:21:48;31.30;53.40
2200;DHT22;1106;48.762;9.168;2022-09-06T11:24:30;31.30;53.90
2200;DHT22;1106;48.762;9.168;2022-09-06T11:27:03;31.20;52.70
2200;DHT22;1106;48.762;9.168;2022-09-06T11:29:32;31.10;53.50
2200;DHT22;1106;48.762;9.168;2022-09-06T11:32:01;31.00;53.90
2200;DHT22;1106;48.762;9.168;2022-09-06T11:34:29;30.90;54.50
2200;DHT22;1106;48.762;9.168;2022-09-06T11:36:59;30.90;55.00
2200;DHT22;1106;48.762;9.168;2022-09-06T11:39:30;30.90;55.00
2200;DHT22;1106;48.762;9.168;2022-09-06T11:41:59;30.90;55.20
2200;DHT22;1106;48.762;9.168;2022-09-06T11:47:37;31.00;55.20
2200;DHT22;1106;48.762;9.168;2022-09-06T11:50:24;31.00;55.20
2200;DHT22;1106;48.762;9.168;2022-09-06T11:53:08;31.10;54.90
2200;DHT22;1106;48.762;9.168;2022-09-06T11:55:41;31.30;54.50
2200;DHT22;1106;48.762;9.168;2022-09-06T11:58:18;31.30;54.30
2200;DHT22;1106;48.762;9.168;2022-09-06T12:04:07;31.40;54.20
2200;DHT22;1106;48.762;9.168;2022-09-06T12:06:37;31.60;53.60
2200;DHT22;1106;48.762;9.168;2022-09-06T12:09:27;31.60;53.20
2200;DHT22;1106;48.762;9.168;2022-09-06T12:11:57;31.90;52.60
2200;DHT22;1106;48.762;9.168;2022-09-06T12:14:33;31.80;53.10
2200;DHT22;1106;48.762;9.168;2022-09-06T12:17:24;31.90;53.20
2200;DHT22;1106;48.762;9.168;2022-09-06T12:19:59;32.00;52.50
2200;DHT22;1106;48.762;9.168;2022-09-06T12:23:01;32.10;52.40
2200;DHT22;1106;48.762;9.168;2022-09-06T12:25:56;32.10;52.10
2200;DHT22;1106;48.762;9.168;2022-09-06T12:28:39;32.00;52.00
2200;DHT22;1106;48.762;9.168;2022-09-06T12:31:26;32.00;51.30
2200;DHT22;1106;48.762;9.168;2022-09-06T12:33:54;31.40;52.90
2200;DHT22;1106;48.762;9.168;2022-09-06T12:36:24;31.50;53.00
2200;DHT22;1106;48.762;9.168;2022-09-06T12:38:56;31.50;53.00
2200;DHT22;1106;48.762;9.168;2022-09-06T12:41:23;31.60;52.70
2200;DHT22;1106;48.762;9.168;2022-09-06T12:43:52;31.50;52.50
2200;DHT22;1106;48.762;9.168;2022-09-06T12:46:23;31.20;53.20
2200;DHT22;1106;48.762;9.168;2022-09-06T12:49:05;30.70;53.90
2200;DHT22;1106;48.762;9.168;2022-09-06T12:51:32;30.30;55.40
2200;DHT22;1106;48.762;9.168;2022-09-06T12:54:02;29.90;57.00
2200;DHT22;1106;48.762;9.168;2022-09-06T12:56:31;29.40;58.20
2200;DHT22;1106;48.762;9.168;2022-09-06T12:59:16;29.00;59.60
2200;DHT22;1106;48.762;9.168;2022-09-06T13:01:52;28.50;61.40
2200;DHT22;1106;48.762;9.168;2022-09-06T13:04:26;28.10;63.00
2200;DHT22;1106;48.762;9.168;2022-09-06T13:06:55;27.90;64.30
2200;DHT22;1106;48.762;9.168;2022-09-06T13:09:23;27.80;64.60
2200;DHT22;1106;48.762;9.168;2022-09-06T13:11:54;27.70;64.50
2200;DHT22;1106;48.762;9.168;2022-09-06T13:14:25;27.60;65.40
2200;DHT22;1106;48.762;9.168;2022-09-06T13:16:53;27.30;66.10
2200;DHT22;1106;48.762;9.168;2022-09-06T13:19:30;27.10;64.80
2200;DHT22;1106;48.762;9.168;2022-09-06T13:21:58;27.10;65.40
2200;DHT22;1106;48.762;9.168;2022-09-06T13:24:36;27.10;65.20
2200;DHT22;1106;48.762;9.168;2022-09-06T13:27:31;27.10;64.90
2200;DHT22;1106;48.762;9.168;2022-09-06T13:30:02;27.20;65.90
2200;DHT22;1106;48.762;9.168;2022-09-06T13:32:30;27.00;67.20
2200;DHT22;1106;48.762;9.168;2022-09-06T13:34:59;26.70;69.00
2200;DHT22;1106;48.762;9.168;2022-09-06T13:37:28;26.70;69.50
2200;DHT22;1106;48.762;9.168;2022-09-06T13:39:56;26.70;71.60
2200;DHT22;1106;48.762;9.168;2022-09-06T13:42:26;26.70;71.70
2200;DHT22;1106;48.762;9.168;2022-09-06T13:44:53;26.70;71.80
2200;DHT22;1106;48.762;9.168;2022-09-06T13:47:25;26.80;71.60
2200;DHT22;1106;48.762;9.168;2022-09-06T13:49:52;26.70;71.70
2200;DHT22;1106;48.762;9.168;2022-09-06T13:52:20;26.70;71.50
2200;DHT22;1106;48.762;9.168;2022-09-06T13:54:47;26.60;71.70
2200;DHT22;1106;48.762;9.168;2022-09-06T13:57:17;26.50;71.20
2200;DHT22;1106;48.762;9.168;2022-09-06T13:59:44;26.50;71.40
2200;DHT22;1106;48.762;9.168;2022-09-06T14:02:12;26.40;71.70
2200;DHT22;1106;48.762;9.168;2022-09-06T14:04:41;26.30;72.30
2200;DHT22;1106;48.762;9.168;2022-09-06T14:07:08;26.30;72.80
2200;DHT22;1106;48.762;9.168;2022-09-06T14:09:35;26.10;73.00
2200;DHT22;1106;48.762;9.168;2022-09-06T14:12:03;26.00;74.10
2200;DHT22;1106;48.762;9.168;2022-09-06T14:14:31;25.90;74.90
2200;DHT22;1106;48.762;9.168;2022-09-06T14:16:58;26.00;75.40
2200;DHT22;1106;48.762;9.168;2022-09-06T14:19:25;26.00;76.20
2200;DHT22;1106;48.762;9.168;2022-09-06T14:21:54;25.90;76.80
2200;DHT22;1106;48.762;9.168;2022-09-06T14:24:21;25.90;76.70
2200;DHT22;1106;48.762;9.168;2022-09-06T14:26:48;25.80;77.20
2200;DHT22;1106;48.762;9.168;2022-09-06T14:29:15;25.60;78.20
2200;DHT22;1106;48.762;9.168;2022-09-06T14:31:42;25.60;78.50
2200;DHT22;1106;48.762;9.168;2022-09-06T14:34:09;25.50;78.90
2200;DHT22;1106;48.762;9.168;2022-09-06T14:36:36;25.40;79.60
2200;DHT22;1106;48.762;9.168;2022-09-06T14:39:04;25.40;79.90
2200;DHT22;1106;48.762;9.168;2022-09-06T14:41:32;25.50;79.80
2200;DHT22;1106;48.762;9.168;2022-09-06T14:43:59;25.40;80.10
2200;DHT22;1106;48.762;9.168;2022-09-06T14:46:26;25.30;80.40
2200;DHT22;1106;48.762;9.168;2022-09-06T14:48:58;25.50;80.00
2200;DHT22;1106;48.762;9.168;2022-09-06T14:51:25;25.50;79.80
2200;DHT22;1106;48.762;9.168;2022-09-06T14:53:55;25.50;79.80
2200;DHT22;1106;48.762;9.168;2022-09-06T14:56:23;25.50;79.50
2200;DHT22;1106;48.762;9.168;2022-09-06T14:58:50;25.50;79.30
2200;DHT22;1106;48.762;9.168;2022-09-06T15:01:22;25.60;79.60
2200;DHT22;1106;48.762;9.168;2022-09-06T15:03:53;25.70;79.50
2200;DHT22;1106;48.762;9.168;2022-09-06T15:06:22;25.70;79.40
2200;DHT22;1106;48.762;9.168;2022-09-06T15:08:50;25.70;79.10
2200;DHT22;1106;48.762;9.168;2022-09-06T15:11:28;25.80;79.10
2200;DHT22;1106;48.762;9.168;2022-09-06T15:13:56;25.90;78.60
2200;DHT22;1106;48.762;9.168;2022-09-06T15:16:23;26.00;77.80
2200;DHT22;1106;48.762;9.168;2022-09-06T15:18:50;26.10;76.80
2200;DHT22;1106;48.762;9.168;2022-09-06T15:21:17;26.30;75.80
2200;DHT22;1106;48.762;9.168;2022-09-06T15:23:44;26.40;75.20
2200;DHT22;1106;48.762;9.168;2022-09-06T15:26:12;26.60;74.40
2200;DHT22;1106;48.762;9.168;2022-09-06T15:28:42;26.80;73.40
2200;DHT22;1106;48.762;9.168;2022-09-06T15:31:10;27.10;72.30
2200;DHT22;1106;48.762;9.168;2022-09-06T15:33:40;27.50;70.80
2200;DHT22;1106;48.762;9.168;2022-09-06T15:36:08;28.00;68.70
2200;DHT22;1106;48.762;9.168;2022-09-06T15:38:40;28.40;67.10
2200;DHT22;1106;48.762;9.168;2022-09-06T15:41:09;28.70;65.50
2200;DHT22;1106;48.762;9.168;2022-09-06T15:43:38;28.90;64.50
2200;DHT22;1106;48.762;9.168;2022-09-06T15:46:12;29.00;63.80
2200;DHT22;1106;48.762;9.168;2022-09-06T15:48:41;29.00;63.00
2200;DHT22;1106;48.762;9.168;2022-09-06T15:51:10;28.90;62.70
2200;DHT22;1106;48.762;9.168;2022-09-06T15:53:37;28.70;63.00
2200;DHT22;1106;48.762;9.168;2022-09-06T15:56:05;28.70;63.10
2200;DHT22;1106;48.762;9.168;2022-09-06T15:58:32;28.60;63.00
2200;DHT22;1106;48.762;9.168;2022-09-06T16:01:07;28.50;63.50
2200;DHT22;1106;48.762;9.168;2022-09-06T16:03:37;28.50;63.30
2200;DHT22;1106;48.762;9.168;2022-09-06T16:06:09;28.40;63.80
2200;DHT22;1106;48.762;9.168;2022-09-06T16:08:36;28.30;63.40
2200;DHT22;1106;48.762;9.168;2022-09-06T16:11:07;28.30;62.40
2200;DHT22;1106;48.762;9.168;2022-09-06T16:13:36;28.20;63.10
2200;DHT22;1106;48.762;9.168;2022-09-06T16:16:05;28.30;63.50
2200;DHT22;1106;48.762;9.168;2022-09-06T16:18:34;28.60;62.90
2200;DHT22;1106;48.762;9.168;2022-09-06T16:21:08;28.90;62.50
2200;DHT22;1106;48.762;9.168;2022-09-06T16:23:36;29.20;62.00
2200;DHT22;1106;48.762;9.168;2022-09-06T16:26:04;29.20;60.60
2200;DHT22;1106;48.762;9.168;2022-09-06T16:28:33;29.10;61.10
2200;DHT22;1106;48.762;9.168;2022-09-06T16:31:03;29.20;61.00
2200;DHT22;1106;48.762;9.168;2022-09-06T16:33:31;29.60;59.50